Observations for STANSTED AIRPORT, United Kingdom (EGSS)

EGSS 190320Z AUTO 19011KT 9999 BKN019 BKN027 BKN034 17/14 Q1011 
EGSS 190250Z AUTO 19011KT 9999 SCT039 17/14 Q1012   
EGSS 190220Z AUTO 20012KT 9999 NCD 17/14 Q1012  
EGSS 190150Z AUTO 20013KT 9999 NCD 17/14 Q1012  
EGSS 190120Z AUTO 20013KT 9999 NCD 17/13 Q1012  
EGSS 190050Z AUTO 21012KT 9999 NCD 17/13 Q1012  
EGSS 190020Z AUTO 22012KT 9999 NCD 17/14 Q1012  
EGSS 182350Z AUTO 22013KT 9999 NCD 17/14 Q1012  
EGSS 182320Z AUTO 22012KT 9999 NCD 17/14 Q1012  
EGSS 182250Z AUTO 21013KT 9999 NCD 17/14 Q1012  
EGSS 182220Z AUTO 22012KT 9999 NCD 17/14 Q1012  
EGSS 182150Z AUTO 21013KT 9999 NCD 17/14 Q1012  
EGSS 182120Z AUTO 21014KT 9999 FEW048 17/14 Q1012   
EGSS 182050Z AUTO 21015KT 9999 SCT047 17/14 Q1012   
EGSS 182020Z 21015KT CAVOK 17/14 Q1012  
EGSS 181950Z AUTO 21014KT 9999 NCD 17/14 Q1012  
EGSS 181920Z AUTO 21016KT 9999 NCD 18/14 Q1012  
EGSS 181850Z AUTO 22014KT 9999 SCT025 18/14 Q1011   
EGSS 181820Z AUTO 21011KT 9999 BKN025 19/14 Q1011   
EGSS 181750Z AUTO 22015KT 9999 BKN028 19/14 Q1011   
EGSS 181720Z AUTO 22016KT 9999 BKN028 20/14 Q1011   
EGSS 181650Z AUTO 22018KT 9999 BKN029 20/14 Q1011   
EGSS 181620Z AUTO 22018KT 9999 BKN033 21/14 Q1011   
EGSS 181550Z AUTO 22017KT 9999 SCT036 BKN043 21/13 Q1010
EGSS 181520Z AUTO 22017KT 9999 BKN040 21/13 Q1010   
EGSS 181450Z AUTO 23013KT 9999 BKN038 21/13 Q1010   
EGSS 181420Z AUTO 23015KT 9999 BKN039 21/13 Q1010   
EGSS 181350Z AUTO 23016KT 9999 SCT039 21/13 Q1010   
EGSS 181320Z AUTO 23014KT 9999 NCD 21/12 Q1009  
EGSS 181250Z AUTO 24015KT 9999 FEW035 21/12 Q1009   
EGSS 181220Z AUTO 23019KT 9999 NCD 20/12 Q1009  
EGSS 181150Z AUTO 23020KT 9999 FEW030 21/12 Q1008   
EGSS 181120Z AUTO 24016KT 9999 BKN030 21/13 Q1008   
EGSS 181050Z AUTO 23020KT 9999 BKN025 20/13 Q1008   
EGSS 181020Z AUTO 23020KT 9999 SCT018 BKN023 19/14 Q1007
EGSS 180950Z AUTO 22022KT 9999 BKN016 OVC023 18/14 Q1007
EGSS 180920Z AUTO 22022KT 9999 OVC017 18/14 Q1007   
EGSS 180850Z AUTO 21019KT 9999 OVC015 18/15 Q1006   
EGSS 180820Z AUTO 21019KT 9999 OVC015 18/15 Q1006   
EGSS 180750Z AUTO 21022KT 9999 OVC016 18/15 Q1006   
EGSS 180720Z AUTO 21023G33KT 9999 OVC018 18/14 Q1005
EGSS 180650Z AUTO 22021KT 9999 OVC020 18/14 Q1005   
EGSS 180620Z AUTO 21023G35KT 9999 BKN021 OVC025 19/14 Q1005 
EGSS 180550Z AUTO 21022G33KT 9999 OVC015 19/15 Q1005
EGSS 180520Z AUTO 20017KT 9999 OVC016 19/15 Q1005   
EGSS 180450Z AUTO 20017KT 9999 BKN018 OVC026 19/15 Q1004
EGSS 180420Z AUTO 20016KT 9999 OVC021 18/15 Q1005   
EGSS 180350Z AUTO 19015KT 9999 BKN021 17/14 Q1005   
EGSS 180320Z AUTO 19013KT 9999 SCT018 BKN025 17/14 Q1005
EGSS 180250Z AUTO 21013KT 9999 SCT020 17/13 Q1006